PWSweather.com
Personal Weather Stations
Station Observations
KMICHEBO10
Cordwood Point, Lake Huron, Cheboygan, MI 49721

Cordwood Point, Lake HuronCheboygan, MI 49721

Lat: 45.663372, Lon: -84.3327789

Elevation: 584

Station Type: Davis Vantage Pro2 Wireless

Latest ConditionsUpdated 4:00:09 AM EDT Sunday, Apr 23, 2017
Currently Today's Max Today's Min Today's Average
Temperature 44.0°F6.7°C 44.4°F6.9°C 39.8°F4.3°C 42.2°F5.7°C
Dew Point 28.4°F-2.0°C 31.6°F-0.2°C 27.4°F-2.6°C 29.6°F-1.3°C
Winds 5.0 mph SW8.0 kmh SW 5.0 mph SW8.0 kmh SW - 1.6 mph 2.6 kmh
Wind Gusts 7.0 mph11.3 kmh 8.0 mph12.9 kmh - -
Humidity 54% 71% 51% 61%
Pressure 30.00 in1015.9 mb 30.07 in1018.3 mb 30.00 in1015.9 mb -
Hour Temp Dew Point Humidity Winds Wind Gusts Pressure Precip Precip Rate Daily Precip Total
04:00 AM 44.0°F6.7°C 28.4°F-2.0°C 54% 5.0 mph SW8.0 kmh SW 7.0 mph11.3 kmh 30.00 in1015.9 mb 0.00 in0.0 mm 0.00 in0.0 mm 0.00 in0.0 mm
03:50 AM 44.1°F6.7°C 28.1°F-2.2°C 53% 2.0 mph S3.2 kmh S 7.0 mph11.3 kmh 30.01 in1016.3 mb 0.00 in0.0 mm 0.00 in0.0 mm 0.00 in0.0 mm
03:40 AM 44.3°F6.8°C 28.3°F-2.1°C 53% 2.0 mph S3.2 kmh S 6.0 mph9.7 kmh 30.00 in1015.9 mb 0.00 in0.0 mm 0.00 in0.0 mm 0.00 in0.0 mm
03:30 AM 44.4°F6.9°C 27.4°F-2.6°C 51% 4.0 mph S6.4 kmh S 8.0 mph12.9 kmh 30.01 in1016.3 mb 0.00 in0.0 mm 0.00 in0.0 mm 0.00 in0.0 mm
03:20 AM 44.4°F6.9°C 27.9°F-2.3°C 52% 2.0 mph S3.2 kmh S 7.0 mph11.3 kmh 30.00 in1015.9 mb 0.00 in0.0 mm 0.00 in0.0 mm 0.00 in0.0 mm
03:10 AM 44.1°F6.7°C 29.0°F-1.7°C 55% 2.0 mph S3.2 kmh S 6.0 mph9.7 kmh 30.00 in1015.9 mb 0.00 in0.0 mm 0.00 in0.0 mm 0.00 in0.0 mm
03:00 AM 44.3°F6.8°C 28.7°F-1.8°C 54% 4.0 mph E6.4 kmh E 7.0 mph11.3 kmh 30.01 in1016.3 mb 0.00 in0.0 mm 0.00 in0.0 mm 0.00 in0.0 mm
02:50 AM 44.1°F6.7°C 28.5°F-1.9°C 54% 2.0 mph S3.2 kmh S 5.0 mph8.0 kmh 30.02 in1016.6 mb 0.00 in0.0 mm 0.00 in0.0 mm 0.00 in0.0 mm
02:40 AM 43.7°F6.5°C 29.1°F-1.6°C 56% 3.0 mph S4.8 kmh S 7.0 mph11.3 kmh 30.02 in1016.6 mb 0.00 in0.0 mm 0.00 in0.0 mm 0.00 in0.0 mm
02:30 AM 43.3°F6.3°C 28.2°F-2.1°C 55% 2.0 mph SSE3.2 kmh SSE 5.0 mph8.0 kmh 30.03 in1016.9 mb 0.00 in0.0 mm 0.00 in0.0 mm 0.00 in0.0 mm
02:20 AM 42.9°F6.1°C 29.2°F-1.6°C 58% 1.0 mph S1.6 kmh S 5.0 mph8.0 kmh 30.03 in1016.9 mb 0.00 in0.0 mm 0.00 in0.0 mm 0.00 in0.0 mm
02:10 AM 42.8°F6.0°C 29.1°F-1.6°C 58% 2.0 mph SSE3.2 kmh SSE 5.0 mph8.0 kmh 30.04 in1017.3 mb 0.00 in0.0 mm 0.00 in0.0 mm 0.00 in0.0 mm
02:00 AM 42.3°F5.7°C 29.8°F-1.2°C 61% 1.0 mph S1.6 kmh S 6.0 mph9.7 kmh 30.05 in1017.6 mb 0.00 in0.0 mm 0.00 in0.0 mm 0.00 in0.0 mm
01:50 AM 41.8°F5.4°C 30.1°F-1.1°C 63% 2.0 mph S3.2 kmh S 5.0 mph8.0 kmh 30.05 in1017.6 mb 0.00 in0.0 mm 0.00 in0.0 mm 0.00 in0.0 mm
01:40 AM 41.4°F5.2°C 30.2°F-1.0°C 64% Calm Calm 6.0 mph9.7 kmh 30.05 in1017.6 mb 0.00 in0.0 mm 0.00 in0.0 mm 0.00 in0.0 mm
01:30 AM 41.1°F5.1°C 30.6°F-0.8°C 66% 1.0 mph S1.6 kmh S 5.0 mph8.0 kmh 30.06 in1017.9 mb 0.00 in0.0 mm 0.00 in0.0 mm 0.00 in0.0 mm
01:20 AM 40.7°F4.8°C 30.2°F-1.0°C 66% 2.0 mph SSE3.2 kmh SSE 5.0 mph8.0 kmh 30.06 in1017.9 mb 0.00 in0.0 mm 0.00 in0.0 mm 0.00 in0.0 mm
01:10 AM 40.3°F4.6°C 30.6°F-0.8°C 68% 1.0 mph S1.6 kmh S 2.0 mph3.2 kmh 30.06 in1017.9 mb 0.00 in0.0 mm 0.00 in0.0 mm 0.00 in0.0 mm
01:00 AM 40.0°F4.4°C 30.7°F-0.7°C 69% 1.0 mph S1.6 kmh S 2.0 mph3.2 kmh 30.06 in1017.9 mb 0.00 in0.0 mm 0.00 in0.0 mm 0.00 in0.0 mm
12:50 AM 39.8°F4.3°C 30.8°F-0.7°C 70% 1.0 mph S1.6 kmh S 2.0 mph3.2 kmh 30.06 in1017.9 mb 0.00 in0.0 mm 0.00 in0.0 mm 0.00 in0.0 mm
12:40 AM 39.8°F4.3°C 31.2°F-0.4°C 71% Calm Calm 2.0 mph3.2 kmh 30.06 in1017.9 mb 0.00 in0.0 mm 0.00 in0.0 mm 0.00 in0.0 mm
12:30 AM 40.0°F4.4°C 31.0°F-0.6°C 70% Calm Calm 2.0 mph3.2 kmh 30.07 in1018.3 mb 0.00 in0.0 mm 0.00 in0.0 mm 0.00 in0.0 mm
12:20 AM 40.2°F4.6°C 31.6°F-0.2°C 71% 1.0 mph S1.6 kmh S 2.0 mph3.2 kmh 30.07 in1018.3 mb 0.00 in0.0 mm 0.00 in0.0 mm 0.00 in0.0 mm
12:10 AM 40.4°F4.7°C 31.1°F-0.5°C 69% Calm Calm 1.0 mph1.6 kmh 30.07 in1018.3 mb 0.00 in0.0 mm 0.00 in0.0 mm 0.00 in0.0 mm
12:00 AM 40.6°F4.8°C 30.5°F-0.8°C 67% Calm Calm -- 30.07 in1018.3 mb 0.00 in0.0 mm 0.00 in0.0 mm 0.00 in0.0 mm